sensor_id;sensor_type;location;lat;lon;timestamp;temperature;humidity
8565;DHT22;4320;51.498;6.556;2023-06-24T00:01:28;20.50;68.00
8565;DHT22;4320;51.498;6.556;2023-06-24T00:03:54;20.60;71.20
8565;DHT22;4320;51.498;6.556;2023-06-24T00:06:20;20.60;69.60
8565;DHT22;4320;51.498;6.556;2023-06-24T00:08:48;20.70;64.60
8565;DHT22;4320;51.498;6.556;2023-06-24T00:11:14;20.70;59.90
8565;DHT22;4320;51.498;6.556;2023-06-24T00:13:41;20.90;58.90
8565;DHT22;4320;51.498;6.556;2023-06-24T00:16:07;20.90;46.30
8565;DHT22;4320;51.498;6.556;2023-06-24T00:18:34;20.90;38.80
8565;DHT22;4320;51.498;6.556;2023-06-24T00:20:59;21.00;39.20
8565;DHT22;4320;51.498;6.556;2023-06-24T00:23:27;21.20;36.10
8565;DHT22;4320;51.498;6.556;2023-06-24T00:25:54;21.20;29.40
8565;DHT22;4320;51.498;6.556;2023-06-24T00:28:20;21.10;26.90
8565;DHT22;4320;51.498;6.556;2023-06-24T00:30:47;21.10;25.80
8565;DHT22;4320;51.498;6.556;2023-06-24T00:33:12;21.00;30.20
8565;DHT22;4320;51.498;6.556;2023-06-24T00:35:39;20.80;29.80
8565;DHT22;4320;51.498;6.556;2023-06-24T00:38:05;20.80;32.60
8565;DHT22;4320;51.498;6.556;2023-06-24T00:40:31;20.80;37.20
8565;DHT22;4320;51.498;6.556;2023-06-24T00:42:57;20.90;35.10
8565;DHT22;4320;51.498;6.556;2023-06-24T00:45:23;20.90;33.20
8565;DHT22;4320;51.498;6.556;2023-06-24T00:47:49;20.90;30.00
8565;DHT22;4320;51.498;6.556;2023-06-24T00:50:15;20.70;31.20
8565;DHT22;4320;51.498;6.556;2023-06-24T00:52:41;20.50;38.90
8565;DHT22;4320;51.498;6.556;2023-06-24T00:55:12;20.60;42.40
8565;DHT22;4320;51.498;6.556;2023-06-24T00:57:59;20.60;48.60
8565;DHT22;4320;51.498;6.556;2023-06-24T01:00:26;20.60;49.10
8565;DHT22;4320;51.498;6.556;2023-06-24T01:02:52;20.70;42.80
8565;DHT22;4320;51.498;6.556;2023-06-24T01:05:18;20.70;41.30
8565;DHT22;4320;51.498;6.556;2023-06-24T01:07:49;20.70;43.30
8565;DHT22;4320;51.498;6.556;2023-06-24T01:10:20;20.80;39.90
8565;DHT22;4320;51.498;6.556;2023-06-24T01:12:47;20.60;40.20
8565;DHT22;4320;51.498;6.556;2023-06-24T01:15:13;20.70;42.30
8565;DHT22;4320;51.498;6.556;2023-06-24T01:20:36;20.90;39.20
8565;DHT22;4320;51.498;6.556;2023-06-24T01:30:00;20.70;47.40
8565;DHT22;4320;51.498;6.556;2023-06-24T01:32:05;20.80;43.20
8565;DHT22;4320;51.498;6.556;2023-06-24T01:34:36;20.90;42.60
8565;DHT22;4320;51.498;6.556;2023-06-24T01:37:14;20.90;41.40
8565;DHT22;4320;51.498;6.556;2023-06-24T01:39:50;20.90;38.80
8565;DHT22;4320;51.498;6.556;2023-06-24T01:42:19;20.80;43.10
8565;DHT22;4320;51.498;6.556;2023-06-24T01:44:48;20.60;47.30
8565;DHT22;4320;51.498;6.556;2023-06-24T01:47:18;20.70;48.70
8565;DHT22;4320;51.498;6.556;2023-06-24T01:49:45;20.80;47.50
8565;DHT22;4320;51.498;6.556;2023-06-24T01:52:12;20.90;49.80
8565;DHT22;4320;51.498;6.556;2023-06-24T01:54:39;20.80;54.70
8565;DHT22;4320;51.498;6.556;2023-06-24T01:57:08;20.70;62.70
8565;DHT22;4320;51.498;6.556;2023-06-24T01:59:37;20.70;64.60
8565;DHT22;4320;51.498;6.556;2023-06-24T02:02:06;20.70;62.80
8565;DHT22;4320;51.498;6.556;2023-06-24T02:04:34;20.70;70.00
8565;DHT22;4320;51.498;6.556;2023-06-24T02:07:02;20.40;70.50
8565;DHT22;4320;51.498;6.556;2023-06-24T02:09:29;20.30;79.50
8565;DHT22;4320;51.498;6.556;2023-06-24T02:12:02;20.20;85.00
8565;DHT22;4320;51.498;6.556;2023-06-24T02:14:29;20.20;91.30
8565;DHT22;4320;51.498;6.556;2023-06-24T02:16:58;20.10;96.80
8565;DHT22;4320;51.498;6.556;2023-06-24T02:19:27;20.10;99.90
8565;DHT22;4320;51.498;6.556;2023-06-24T02:21:56;20.00;99.00
8565;DHT22;4320;51.498;6.556;2023-06-24T02:24:23;20.10;99.90
8565;DHT22;4320;51.498;6.556;2023-06-24T02:26:50;20.10;98.40
8565;DHT22;4320;51.498;6.556;2023-06-24T02:29:17;20.10;93.80
8565;DHT22;4320;51.498;6.556;2023-06-24T02:31:43;20.10;94.30
8565;DHT22;4320;51.498;6.556;2023-06-24T02:34:09;20.20;94.00
8565;DHT22;4320;51.498;6.556;2023-06-24T02:36:35;20.30;90.70
8565;DHT22;4320;51.498;6.556;2023-06-24T02:39:00;20.10;82.90
8565;DHT22;4320;51.498;6.556;2023-06-24T02:41:26;20.20;83.90
8565;DHT22;4320;51.498;6.556;2023-06-24T02:43:52;20.30;80.20
8565;DHT22;4320;51.498;6.556;2023-06-24T02:46:17;20.50;77.20
8565;DHT22;4320;51.498;6.556;2023-06-24T02:48:45;20.20;69.50
8565;DHT22;4320;51.498;6.556;2023-06-24T02:51:11;19.90;72.50
8565;DHT22;4320;51.498;6.556;2023-06-24T02:53:38;20.00;77.80
8565;DHT22;4320;51.498;6.556;2023-06-24T02:56:05;20.20;72.50
8565;DHT22;4320;51.498;6.556;2023-06-24T02:58:32;20.30;73.50
8565;DHT22;4320;51.498;6.556;2023-06-24T03:01:01;20.30;68.90
8565;DHT22;4320;51.498;6.556;2023-06-24T03:03:29;20.20;67.20
8565;DHT22;4320;51.498;6.556;2023-06-24T03:05:55;20.30;66.60
8565;DHT22;4320;51.498;6.556;2023-06-24T03:08:24;20.30;66.10
8565;DHT22;4320;51.498;6.556;2023-06-24T03:10:56;20.50;61.20
8565;DHT22;4320;51.498;6.556;2023-06-24T03:13:22;20.50;58.70
8565;DHT22;4320;51.498;6.556;2023-06-24T03:15:48;20.50;56.30
8565;DHT22;4320;51.498;6.556;2023-06-24T03:18:15;20.40;50.00
8565;DHT22;4320;51.498;6.556;2023-06-24T03:20:41;20.40;49.60
8565;DHT22;4320;51.498;6.556;2023-06-24T03:23:07;20.30;51.40
8565;DHT22;4320;51.498;6.556;2023-06-24T03:25:33;20.10;51.20
8565;DHT22;4320;51.498;6.556;2023-06-24T03:27:59;20.20;53.00
8565;DHT22;4320;51.498;6.556;2023-06-24T03:30:29;20.10;53.40
8565;DHT22;4320;51.498;6.556;2023-06-24T03:32:55;20.20;52.10
8565;DHT22;4320;51.498;6.556;2023-06-24T03:35:21;20.40;49.80
8565;DHT22;4320;51.498;6.556;2023-06-24T03:37:48;20.40;46.30
8565;DHT22;4320;51.498;6.556;2023-06-24T03:40:13;20.50;43.10
8565;DHT22;4320;51.498;6.556;2023-06-24T03:42:39;20.50;41.00
8565;DHT22;4320;51.498;6.556;2023-06-24T03:45:05;20.60;39.10
8565;DHT22;4320;51.498;6.556;2023-06-24T03:47:31;20.50;38.10
8565;DHT22;4320;51.498;6.556;2023-06-24T03:49:56;20.60;36.20
8565;DHT22;4320;51.498;6.556;2023-06-24T03:52:23;20.60;35.80
8565;DHT22;4320;51.498;6.556;2023-06-24T03:54:48;20.50;36.30
8565;DHT22;4320;51.498;6.556;2023-06-24T03:57:17;20.10;42.60
8565;DHT22;4320;51.498;6.556;2023-06-24T03:59:43;19.80;50.30
8565;DHT22;4320;51.498;6.556;2023-06-24T04:02:08;19.50;63.70
8565;DHT22;4320;51.498;6.556;2023-06-24T04:04:35;19.50;79.20
8565;DHT22;4320;51.498;6.556;2023-06-24T04:07:01;19.50;83.00
8565;DHT22;4320;51.498;6.556;2023-06-24T04:09:28;19.30;91.40
8565;DHT22;4320;51.498;6.556;2023-06-24T04:11:54;19.30;95.70
8565;DHT22;4320;51.498;6.556;2023-06-24T04:14:20;19.30;99.80
8565;DHT22;4320;51.498;6.556;2023-06-24T04:16:45;19.20;99.90
8565;DHT22;4320;51.498;6.556;2023-06-24T04:19:11;19.20;99.90
8565;DHT22;4320;51.498;6.556;2023-06-24T04:21:37;19.40;99.90
8565;DHT22;4320;51.498;6.556;2023-06-24T04:24:03;19.50;99.90
8565;DHT22;4320;51.498;6.556;2023-06-24T04:26:29;19.80;99.90
8565;DHT22;4320;51.498;6.556;2023-06-24T04:28:54;19.80;99.90
8565;DHT22;4320;51.498;6.556;2023-06-24T04:31:20;20.00;99.90
8565;DHT22;4320;51.498;6.556;2023-06-24T04:33:45;20.50;98.50
8565;DHT22;4320;51.498;6.556;2023-06-24T04:36:11;20.70;92.60
8565;DHT22;4320;51.498;6.556;2023-06-24T04:38:37;20.60;90.10
8565;DHT22;4320;51.498;6.556;2023-06-24T04:41:02;20.60;85.80
8565;DHT22;4320;51.498;6.556;2023-06-24T04:43:29;20.80;77.90
8565;DHT22;4320;51.498;6.556;2023-06-24T04:45:54;20.80;75.90
8565;DHT22;4320;51.498;6.556;2023-06-24T04:48:23;20.30;76.80
8565;DHT22;4320;51.498;6.556;2023-06-24T04:50:49;20.10;85.90
8565;DHT22;4320;51.498;6.556;2023-06-24T04:53:14;20.20;89.60
8565;DHT22;4320;51.498;6.556;2023-06-24T04:55:40;20.40;88.40
8565;DHT22;4320;51.498;6.556;2023-06-24T04:58:06;20.20;89.10
8565;DHT22;4320;51.498;6.556;2023-06-24T05:00:32;20.10;91.90
8565;DHT22;4320;51.498;6.556;2023-06-24T05:02:57;19.90;95.40
8565;DHT22;4320;51.498;6.556;2023-06-24T05:05:23;19.80;99.90
8565;DHT22;4320;51.498;6.556;2023-06-24T05:07:48;19.70;99.90
8565;DHT22;4320;51.498;6.556;2023-06-24T05:10:14;19.80;99.90
8565;DHT22;4320;51.498;6.556;2023-06-24T05:12:40;20.10;99.90
8565;DHT22;4320;51.498;6.556;2023-06-24T05:15:06;20.40;99.90
8565;DHT22;4320;51.498;6.556;2023-06-24T05:17:32;20.60;96.60
8565;DHT22;4320;51.498;6.556;2023-06-24T05:19:58;20.60;93.40
8565;DHT22;4320;51.498;6.556;2023-06-24T05:22:24;20.60;92.20
8565;DHT22;4320;51.498;6.556;2023-06-24T05:24:49;20.60;92.10
8565;DHT22;4320;51.498;6.556;2023-06-24T05:27:15;20.60;92.60
8565;DHT22;4320;51.498;6.556;2023-06-24T05:29:41;20.60;91.60
8565;DHT22;4320;51.498;6.556;2023-06-24T05:32:07;20.70;93.00
8565;DHT22;4320;51.498;6.556;2023-06-24T05:34:32;20.80;90.80
8565;DHT22;4320;51.498;6.556;2023-06-24T05:36:59;20.90;86.40
8565;DHT22;4320;51.498;6.556;2023-06-24T05:39:25;20.80;88.90
8565;DHT22;4320;51.498;6.556;2023-06-24T05:41:50;20.80;91.60
8565;DHT22;4320;51.498;6.556;2023-06-24T05:44:16;21.20;87.50
8565;DHT22;4320;51.498;6.556;2023-06-24T05:46:44;21.40;78.40
8565;DHT22;4320;51.498;6.556;2023-06-24T05:49:09;21.50;70.40
8565;DHT22;4320;51.498;6.556;2023-06-24T05:51:35;21.50;67.50
8565;DHT22;4320;51.498;6.556;2023-06-24T05:54:01;21.70;63.50
8565;DHT22;4320;51.498;6.556;2023-06-24T05:56:26;21.70;58.40
8565;DHT22;4320;51.498;6.556;2023-06-24T05:58:52;21.70;55.80
8565;DHT22;4320;51.498;6.556;2023-06-24T06:01:18;21.70;55.70
8565;DHT22;4320;51.498;6.556;2023-06-24T06:03:43;21.80;52.70
8565;DHT22;4320;51.498;6.556;2023-06-24T06:06:09;21.80;49.90
8565;DHT22;4320;51.498;6.556;2023-06-24T06:08:34;21.80;48.60
8565;DHT22;4320;51.498;6.556;2023-06-24T06:11:00;21.80;46.20
8565;DHT22;4320;51.498;6.556;2023-06-24T06:13:29;21.80;45.00
8565;DHT22;4320;51.498;6.556;2023-06-24T06:15:56;21.60;50.10
8565;DHT22;4320;51.498;6.556;2023-06-24T06:18:22;21.70;52.30
8565;DHT22;4320;51.498;6.556;2023-06-24T06:20:47;21.80;50.10
8565;DHT22;4320;51.498;6.556;2023-06-24T06:23:13;21.90;49.70
8565;DHT22;4320;51.498;6.556;2023-06-24T06:25:39;22.00;46.30
8565;DHT22;4320;51.498;6.556;2023-06-24T06:28:05;21.90;45.60
8565;DHT22;4320;51.498;6.556;2023-06-24T06:30:30;22.00;44.70
8565;DHT22;4320;51.498;6.556;2023-06-24T06:32:56;21.90;45.20
8565;DHT22;4320;51.498;6.556;2023-06-24T06:35:22;21.90;44.90
8565;DHT22;4320;51.498;6.556;2023-06-24T06:37:47;22.00;40.90
8565;DHT22;4320;51.498;6.556;2023-06-24T06:40:21;22.00;40.70
8565;DHT22;4320;51.498;6.556;2023-06-24T06:42:47;22.10;39.20
8565;DHT22;4320;51.498;6.556;2023-06-24T06:45:13;22.00;42.90
8565;DHT22;4320;51.498;6.556;2023-06-24T06:47:38;22.10;42.10
8565;DHT22;4320;51.498;6.556;2023-06-24T06:50:05;22.10;40.90
8565;DHT22;4320;51.498;6.556;2023-06-24T06:52:30;22.20;37.60
8565;DHT22;4320;51.498;6.556;2023-06-24T06:54:56;22.20;28.00
8565;DHT22;4320;51.498;6.556;2023-06-24T06:57:22;22.30;21.60
8565;DHT22;4320;51.498;6.556;2023-06-24T06:59:47;22.20;14.80
8565;DHT22;4320;51.498;6.556;2023-06-24T07:02:16;22.00;13.40
8565;DHT22;4320;51.498;6.556;2023-06-24T07:04:42;22.20;6.00
8565;DHT22;4320;51.498;6.556;2023-06-24T07:07:08;22.30;6.10
8565;DHT22;4320;51.498;6.556;2023-06-24T07:09:34;22.20;1.70
8565;DHT22;4320;51.498;6.556;2023-06-24T07:11:59;22.40;1.00
8565;DHT22;4320;51.498;6.556;2023-06-24T07:14:25;22.30;1.00
8565;DHT22;4320;51.498;6.556;2023-06-24T07:16:51;22.60;1.00
8565;DHT22;4320;51.498;6.556;2023-06-24T07:19:16;22.60;1.00
8565;DHT22;4320;51.498;6.556;2023-06-24T07:21:42;22.40;1.00
8565;DHT22;4320;51.498;6.556;2023-06-24T07:24:07;22.60;1.00
8565;DHT22;4320;51.498;6.556;2023-06-24T07:26:33;22.70;1.00
8565;DHT22;4320;51.498;6.556;2023-06-24T07:28:59;22.50;1.00
8565;DHT22;4320;51.498;6.556;2023-06-24T07:31:25;22.70;1.00
8565;DHT22;4320;51.498;6.556;2023-06-24T07:33:50;22.90;1.00
8565;DHT22;4320;51.498;6.556;2023-06-24T07:36:16;22.80;1.00
8565;DHT22;4320;51.498;6.556;2023-06-24T07:38:42;22.80;1.00
8565;DHT22;4320;51.498;6.556;2023-06-24T07:41:08;22.90;1.00
8565;DHT22;4320;51.498;6.556;2023-06-24T07:43:33;23.10;1.00
8565;DHT22;4320;51.498;6.556;2023-06-24T07:45:59;23.20;1.00
8565;DHT22;4320;51.498;6.556;2023-06-24T07:48:24;23.20;1.00
8565;DHT22;4320;51.498;6.556;2023-06-24T07:50:50;23.30;1.00
8565;DHT22;4320;51.498;6.556;2023-06-24T07:53:16;23.10;1.00
8565;DHT22;4320;51.498;6.556;2023-06-24T07:55:41;23.40;1.00
8565;DHT22;4320;51.498;6.556;2023-06-24T07:58:07;23.50;1.00
8565;DHT22;4320;51.498;6.556;2023-06-24T08:00:33;23.50;1.00
8565;DHT22;4320;51.498;6.556;2023-06-24T08:02:59;23.50;1.00
8565;DHT22;4320;51.498;6.556;2023-06-24T08:05:25;23.30;1.00
8565;DHT22;4320;51.498;6.556;2023-06-24T08:07:51;23.40;1.00
8565;DHT22;4320;51.498;6.556;2023-06-24T08:10:17;23.70;1.00
8565;DHT22;4320;51.498;6.556;2023-06-24T08:12:42;24.30;1.00
8565;DHT22;4320;51.498;6.556;2023-06-24T08:15:08;23.90;1.00
8565;DHT22;4320;51.498;6.556;2023-06-24T08:17:34;23.90;1.00
8565;DHT22;4320;51.498;6.556;2023-06-24T08:20:01;24.00;1.00
8565;DHT22;4320;51.498;6.556;2023-06-24T08:22:26;23.90;1.00
8565;DHT22;4320;51.498;6.556;2023-06-24T08:24:52;23.90;1.00
8565;DHT22;4320;51.498;6.556;2023-06-24T08:27:18;24.00;1.00
8565;DHT22;4320;51.498;6.556;2023-06-24T08:29:43;24.20;1.00
8565;DHT22;4320;51.498;6.556;2023-06-24T08:32:09;24.30;1.00
8565;DHT22;4320;51.498;6.556;2023-06-24T08:34:35;24.50;1.00
8565;DHT22;4320;51.498;6.556;2023-06-24T08:37:01;24.30;1.00
8565;DHT22;4320;51.498;6.556;2023-06-24T08:39:26;24.10;1.00
8565;DHT22;4320;51.498;6.556;2023-06-24T08:41:53;24.10;1.00
8565;DHT22;4320;51.498;6.556;2023-06-24T08:44:19;24.10;1.00
8565;DHT22;4320;51.498;6.556;2023-06-24T08:46:44;24.20;1.00
8565;DHT22;4320;51.498;6.556;2023-06-24T08:54:51;24.30;1.00
8565;DHT22;4320;51.498;6.556;2023-06-24T08:57:17;24.40;1.00
8565;DHT22;4320;51.498;6.556;2023-06-24T08:59:43;24.30;1.00
8565;DHT22;4320;51.498;6.556;2023-06-24T09:02:09;24.40;1.00
8565;DHT22;4320;51.498;6.556;2023-06-24T09:04:36;24.50;1.00
8565;DHT22;4320;51.498;6.556;2023-06-24T09:07:02;24.60;1.00
8565;DHT22;4320;51.498;6.556;2023-06-24T09:09:28;24.60;1.00
8565;DHT22;4320;51.498;6.556;2023-06-24T09:11:59;24.60;1.00
8565;DHT22;4320;51.498;6.556;2023-06-24T09:14:26;24.50;1.00
8565;DHT22;4320;51.498;6.556;2023-06-24T09:16:56;24.60;1.00
8565;DHT22;4320;51.498;6.556;2023-06-24T09:19:27;24.70;1.00
8565;DHT22;4320;51.498;6.556;2023-06-24T09:22:02;24.60;1.00
8565;DHT22;4320;51.498;6.556;2023-06-24T09:24:30;24.70;1.00
8565;DHT22;4320;51.498;6.556;2023-06-24T09:26:56;24.70;1.00
8565;DHT22;4320;51.498;6.556;2023-06-24T09:29:26;24.80;1.00
8565;DHT22;4320;51.498;6.556;2023-06-24T09:31:52;24.80;1.00
8565;DHT22;4320;51.498;6.556;2023-06-24T09:34:19;24.90;1.00
8565;DHT22;4320;51.498;6.556;2023-06-24T09:36:45;24.90;1.00
8565;DHT22;4320;51.498;6.556;2023-06-24T09:39:16;24.90;1.00
8565;DHT22;4320;51.498;6.556;2023-06-24T09:41:42;25.10;1.00
8565;DHT22;4320;51.498;6.556;2023-06-24T09:44:10;25.20;1.00
8565;DHT22;4320;51.498;6.556;2023-06-24T09:46:39;25.00;1.00
8565;DHT22;4320;51.498;6.556;2023-06-24T09:49:06;25.00;1.00
8565;DHT22;4320;51.498;6.556;2023-06-24T09:51:38;24.90;1.00
8565;DHT22;4320;51.498;6.556;2023-06-24T09:54:07;25.00;1.00
8565;DHT22;4320;51.498;6.556;2023-06-24T09:56:36;25.00;1.00
8565;DHT22;4320;51.498;6.556;2023-06-24T09:59:06;24.90;1.00
8565;DHT22;4320;51.498;6.556;2023-06-24T10:01:35;24.70;1.00
8565;DHT22;4320;51.498;6.556;2023-06-24T10:04:01;24.60;1.00
8565;DHT22;4320;51.498;6.556;2023-06-24T10:06:28;24.80;1.00
8565;DHT22;4320;51.498;6.556;2023-06-24T10:08:54;24.80;1.00
8565;DHT22;4320;51.498;6.556;2023-06-24T10:11:20;24.90;1.00
8565;DHT22;4320;51.498;6.556;2023-06-24T10:13:46;25.00;1.00
8565;DHT22;4320;51.498;6.556;2023-06-24T10:16:12;25.10;1.00
8565;DHT22;4320;51.498;6.556;2023-06-24T10:18:39;25.20;1.00
8565;DHT22;4320;51.498;6.556;2023-06-24T10:21:06;25.40;1.00
8565;DHT22;4320;51.498;6.556;2023-06-24T10:26:27;25.70;1.00
8565;DHT22;4320;51.498;6.556;2023-06-24T10:29:14;25.90;1.00
8565;DHT22;4320;51.498;6.556;2023-06-24T10:34:53;26.70;1.00
8565;DHT22;4320;51.498;6.556;2023-06-24T10:37:18;26.80;1.00
8565;DHT22;4320;51.498;6.556;2023-06-24T10:39:52;26.90;1.00
8565;DHT22;4320;51.498;6.556;2023-06-24T10:42:27;26.80;1.00
8565;DHT22;4320;51.498;6.556;2023-06-24T10:44:57;26.50;1.00
8565;DHT22;4320;51.498;6.556;2023-06-24T10:47:24;26.30;1.00
8565;DHT22;4320;51.498;6.556;2023-06-24T10:49:50;26.20;1.00
8565;DHT22;4320;51.498;6.556;2023-06-24T10:52:19;26.10;1.00
8565;DHT22;4320;51.498;6.556;2023-06-24T10:54:45;25.80;1.00
8565;DHT22;4320;51.498;6.556;2023-06-24T10:57:12;25.80;1.00
8565;DHT22;4320;51.498;6.556;2023-06-24T10:59:41;25.80;1.00
8565;DHT22;4320;51.498;6.556;2023-06-24T11:02:08;25.80;1.00
8565;DHT22;4320;51.498;6.556;2023-06-24T11:04:47;25.90;1.00
8565;DHT22;4320;51.498;6.556;2023-06-24T11:07:13;26.00;1.00
8565;DHT22;4320;51.498;6.556;2023-06-24T11:09:42;25.90;1.00
8565;DHT22;4320;51.498;6.556;2023-06-24T11:12:13;25.90;1.00
8565;DHT22;4320;51.498;6.556;2023-06-24T11:14:39;26.00;1.00
8565;DHT22;4320;51.498;6.556;2023-06-24T11:17:06;26.10;1.00
8565;DHT22;4320;51.498;6.556;2023-06-24T11:19:31;26.40;1.00
8565;DHT22;4320;51.498;6.556;2023-06-24T11:22:01;26.40;1.00
8565;DHT22;4320;51.498;6.556;2023-06-24T11:24:30;26.60;1.00
8565;DHT22;4320;51.498;6.556;2023-06-24T11:26:56;26.70;1.00
8565;DHT22;4320;51.498;6.556;2023-06-24T11:29:22;26.70;1.00
8565;DHT22;4320;51.498;6.556;2023-06-24T11:31:49;27.00;1.00
8565;DHT22;4320;51.498;6.556;2023-06-24T11:34:15;27.30;1.00
8565;DHT22;4320;51.498;6.556;2023-06-24T11:36:40;27.20;1.00
8565;DHT22;4320;51.498;6.556;2023-06-24T11:39:06;27.10;1.00
8565;DHT22;4320;51.498;6.556;2023-06-24T11:41:32;27.50;1.00
8565;DHT22;4320;51.498;6.556;2023-06-24T11:43:58;27.80;1.00
8565;DHT22;4320;51.498;6.556;2023-06-24T11:46:27;27.90;1.00
8565;DHT22;4320;51.498;6.556;2023-06-24T11:49:07;28.00;1.00
8565;DHT22;4320;51.498;6.556;2023-06-24T11:51:33;28.20;1.00
8565;DHT22;4320;51.498;6.556;2023-06-24T11:54:03;28.40;1.00
8565;DHT22;4320;51.498;6.556;2023-06-24T11:56:40;29.20;1.00
8565;DHT22;4320;51.498;6.556;2023-06-24T11:59:06;29.40;1.00
8565;DHT22;4320;51.498;6.556;2023-06-24T12:01:35;29.30;1.00
8565;DHT22;4320;51.498;6.556;2023-06-24T12:04:13;29.10;1.00
8565;DHT22;4320;51.498;6.556;2023-06-24T12:06:43;29.10;1.00
8565;DHT22;4320;51.498;6.556;2023-06-24T12:09:09;29.40;1.00
8565;DHT22;4320;51.498;6.556;2023-06-24T12:11:35;29.70;1.00
8565;DHT22;4320;51.498;6.556;2023-06-24T12:14:01;30.00;1.00
8565;DHT22;4320;51.498;6.556;2023-06-24T12:16:27;29.80;1.00
8565;DHT22;4320;51.498;6.556;2023-06-24T12:18:53;29.70;1.00
8565;DHT22;4320;51.498;6.556;2023-06-24T12:21:19;29.80;1.00
8565;DHT22;4320;51.498;6.556;2023-06-24T12:23:45;30.10;1.00
8565;DHT22;4320;51.498;6.556;2023-06-24T12:26:11;30.40;1.00
8565;DHT22;4320;51.498;6.556;2023-06-24T12:28:37;30.00;1.00
8565;DHT22;4320;51.498;6.556;2023-06-24T12:31:03;30.30;1.00
8565;DHT22;4320;51.498;6.556;2023-06-24T12:33:29;30.50;1.00
8565;DHT22;4320;51.498;6.556;2023-06-24T12:35:55;30.30;1.00
8565;DHT22;4320;51.498;6.556;2023-06-24T12:38:20;30.40;1.00
8565;DHT22;4320;51.498;6.556;2023-06-24T12:40:46;30.50;1.00
8565;DHT22;4320;51.498;6.556;2023-06-24T12:43:13;30.40;1.00
8565;DHT22;4320;51.498;6.556;2023-06-24T12:45:40;30.20;1.00
8565;DHT22;4320;51.498;6.556;2023-06-24T12:48:05;30.50;1.00
8565;DHT22;4320;51.498;6.556;2023-06-24T12:50:31;30.40;1.00
8565;DHT22;4320;51.498;6.556;2023-06-24T12:52:57;29.90;1.00
8565;DHT22;4320;51.498;6.556;2023-06-24T12:55:23;30.00;1.00
8565;DHT22;4320;51.498;6.556;2023-06-24T12:57:48;29.90;1.00
8565;DHT22;4320;51.498;6.556;2023-06-24T13:00:14;30.30;1.00
8565;DHT22;4320;51.498;6.556;2023-06-24T13:02:40;30.50;1.00
8565;DHT22;4320;51.498;6.556;2023-06-24T13:05:06;30.60;1.00
8565;DHT22;4320;51.498;6.556;2023-06-24T13:07:32;30.70;1.00
8565;DHT22;4320;51.498;6.556;2023-06-24T13:09:57;30.80;1.00
8565;DHT22;4320;51.498;6.556;2023-06-24T13:12:24;30.80;1.00
8565;DHT22;4320;51.498;6.556;2023-06-24T13:14:50;30.70;1.00
8565;DHT22;4320;51.498;6.556;2023-06-24T13:17:15;30.90;1.00
8565;DHT22;4320;51.498;6.556;2023-06-24T13:19:41;30.70;1.00
8565;DHT22;4320;51.498;6.556;2023-06-24T13:22:07;30.70;1.00
8565;DHT22;4320;51.498;6.556;2023-06-24T13:24:32;30.80;1.00
8565;DHT22;4320;51.498;6.556;2023-06-24T13:26:58;30.60;1.00
8565;DHT22;4320;51.498;6.556;2023-06-24T13:29:23;30.30;1.00
8565;DHT22;4320;51.498;6.556;2023-06-24T13:31:49;30.00;1.00
8565;DHT22;4320;51.498;6.556;2023-06-24T13:34:14;30.00;1.00
8565;DHT22;4320;51.498;6.556;2023-06-24T13:36:40;30.30;1.00
8565;DHT22;4320;51.498;6.556;2023-06-24T13:39:08;30.30;1.00
8565;DHT22;4320;51.498;6.556;2023-06-24T13:41:34;30.20;1.00
8565;DHT22;4320;51.498;6.556;2023-06-24T13:44:04;29.90;1.00
8565;DHT22;4320;51.498;6.556;2023-06-24T13:46:30;29.60;1.00
8565;DHT22;4320;51.498;6.556;2023-06-24T13:48:57;29.30;1.00
8565;DHT22;4320;51.498;6.556;2023-06-24T13:51:24;29.00;1.00
8565;DHT22;4320;51.498;6.556;2023-06-24T13:53:51;29.10;1.00
8565;DHT22;4320;51.498;6.556;2023-06-24T13:56:18;28.80;1.00
8565;DHT22;4320;51.498;6.556;2023-06-24T13:58:44;28.60;1.00
8565;DHT22;4320;51.498;6.556;2023-06-24T14:01:10;28.80;1.00
8565;DHT22;4320;51.498;6.556;2023-06-24T14:03:36;29.00;1.00
8565;DHT22;4320;51.498;6.556;2023-06-24T14:06:02;28.70;1.00
8565;DHT22;4320;51.498;6.556;2023-06-24T14:08:29;28.60;1.00
8565;DHT22;4320;51.498;6.556;2023-06-24T14:10:58;28.40;1.00
8565;DHT22;4320;51.498;6.556;2023-06-24T14:13:25;28.40;1.00
8565;DHT22;4320;51.498;6.556;2023-06-24T14:15:50;28.50;1.00
8565;DHT22;4320;51.498;6.556;2023-06-24T14:18:16;28.80;1.00
8565;DHT22;4320;51.498;6.556;2023-06-24T14:20:42;28.60;1.00
8565;DHT22;4320;51.498;6.556;2023-06-24T14:23:07;28.60;1.00
8565;DHT22;4320;51.498;6.556;2023-06-24T14:25:33;28.80;1.00
8565;DHT22;4320;51.498;6.556;2023-06-24T14:27:59;28.90;1.00
8565;DHT22;4320;51.498;6.556;2023-06-24T14:30:24;28.70;1.00
8565;DHT22;4320;51.498;6.556;2023-06-24T14:32:50;28.30;1.00
8565;DHT22;4320;51.498;6.556;2023-06-24T14:35:15;28.10;1.00
8565;DHT22;4320;51.498;6.556;2023-06-24T14:37:41;28.30;1.00
8565;DHT22;4320;51.498;6.556;2023-06-24T14:40:08;28.40;1.00
8565;DHT22;4320;51.498;6.556;2023-06-24T14:42:34;28.50;1.00
8565;DHT22;4320;51.498;6.556;2023-06-24T14:45:00;28.50;1.00
8565;DHT22;4320;51.498;6.556;2023-06-24T14:47:26;28.70;1.00
8565;DHT22;4320;51.498;6.556;2023-06-24T14:49:51;28.60;1.00
8565;DHT22;4320;51.498;6.556;2023-06-24T14:52:17;28.60;1.00
8565;DHT22;4320;51.498;6.556;2023-06-24T14:54:43;28.50;1.00
8565;DHT22;4320;51.498;6.556;2023-06-24T14:57:08;28.70;1.00
8565;DHT22;4320;51.498;6.556;2023-06-24T14:59:34;28.90;1.00
8565;DHT22;4320;51.498;6.556;2023-06-24T15:01:59;28.80;1.00
8565;DHT22;4320;51.498;6.556;2023-06-24T15:04:25;28.80;1.00
8565;DHT22;4320;51.498;6.556;2023-06-24T15:06:51;28.60;1.00
8565;DHT22;4320;51.498;6.556;2023-06-24T15:09:16;28.60;1.00
8565;DHT22;4320;51.498;6.556;2023-06-24T15:11:42;28.70;1.00
8565;DHT22;4320;51.498;6.556;2023-06-24T15:14:07;28.70;1.00
8565;DHT22;4320;51.498;6.556;2023-06-24T15:16:33;28.80;1.00
8565;DHT22;4320;51.498;6.556;2023-06-24T15:18:58;28.80;1.00
8565;DHT22;4320;51.498;6.556;2023-06-24T15:21:24;28.70;1.00
8565;DHT22;4320;51.498;6.556;2023-06-24T15:23:50;28.60;1.00
8565;DHT22;4320;51.498;6.556;2023-06-24T15:26:15;28.60;1.00
8565;DHT22;4320;51.498;6.556;2023-06-24T15:28:41;28.60;1.00
8565;DHT22;4320;51.498;6.556;2023-06-24T15:31:06;28.70;1.00
8565;DHT22;4320;51.498;6.556;2023-06-24T15:33:32;29.10;1.00
8565;DHT22;4320;51.498;6.556;2023-06-24T15:35:58;29.20;1.00
8565;DHT22;4320;51.498;6.556;2023-06-24T15:38:24;28.90;1.00
8565;DHT22;4320;51.498;6.556;2023-06-24T15:40:50;28.60;1.00
8565;DHT22;4320;51.498;6.556;2023-06-24T15:43:16;28.40;1.00
8565;DHT22;4320;51.498;6.556;2023-06-24T15:45:41;28.40;1.00
8565;DHT22;4320;51.498;6.556;2023-06-24T15:48:07;28.50;1.00
8565;DHT22;4320;51.498;6.556;2023-06-24T15:50:32;28.50;1.00
8565;DHT22;4320;51.498;6.556;2023-06-24T15:52:58;28.40;1.00
8565;DHT22;4320;51.498;6.556;2023-06-24T15:55:24;28.20;1.00
8565;DHT22;4320;51.498;6.556;2023-06-24T15:57:50;27.90;1.00
8565;DHT22;4320;51.498;6.556;2023-06-24T16:00:16;27.70;1.00
8565;DHT22;4320;51.498;6.556;2023-06-24T16:02:41;27.90;1.00
8565;DHT22;4320;51.498;6.556;2023-06-24T16:05:07;27.90;1.00
8565;DHT22;4320;51.498;6.556;2023-06-24T16:07:33;28.00;1.00
8565;DHT22;4320;51.498;6.556;2023-06-24T16:09:59;28.00;1.00
8565;DHT22;4320;51.498;6.556;2023-06-24T16:12:25;27.90;1.00
8565;DHT22;4320;51.498;6.556;2023-06-24T16:14:51;28.00;1.00
8565;DHT22;4320;51.498;6.556;2023-06-24T16:17:18;28.10;1.00
8565;DHT22;4320;51.498;6.556;2023-06-24T16:19:43;28.20;1.00
8565;DHT22;4320;51.498;6.556;2023-06-24T16:22:09;28.30;1.00
8565;DHT22;4320;51.498;6.556;2023-06-24T16:24:35;28.20;1.00
8565;DHT22;4320;51.498;6.556;2023-06-24T16:27:01;28.30;1.00
8565;DHT22;4320;51.498;6.556;2023-06-24T16:29:26;28.10;1.00